Weather History for Port Hedland, WE

Change the Weather History Date:

Saturday, January 5, 2013

  Actual Average Record
Temperature  
Mean Temperature 89 °F -  
Max Temperature 98 °F 97 °F 103 °F (2015)
Min Temperature 80 °F 78 °F 71 °F (2007)
Cooling Degree Days 24    
Growing Degree Days 39 (Base 50)    
Moisture  
Dew Point 76 °F    
Average Humidity 66    
Maximum Humidity 84    
Minimum Humidity 37    
Precipitation  
Precipitation 0.00 in 0.09 in - ()
Sea Level Pressure  
Sea Level Pressure 29.68 in    
Wind  
Wind Speed 7 mph ()    
Max Wind Speed 21 mph    
Max Gust Speed -    
Visibility 6.2 miles    
Events      
Averages and records for this station are not official NWS values.
T = Trace of Precipitation, MM = Missing Value Source: Averaged Metar Reports

Daily Weather History Graph

Daily Weather History Graph

Search for Another Location

Airport:

Trip Planner

Search our weather history database for the weather conditions in past years. The results will help you decide how hot, cold, wet, or windy it might be!

Date:

Astronomy

Jan. 05, 2013 Rise Set
Actual Time 5:31 AM AWST 6:50 PM AWST
Civil Twilight 5:06 AM AWST 7:14 PM AWST
Nautical Twilight 4:37 AM AWST 7:43 PM AWST
Astronomical Twilight 4:07 AM AWST 8:13 PM AWST
Moon No Moon Rise 12:09 PM AWST (1/5)
Length of Visible Light 14h 08m
Length of Day
13h 19m
Waning Gibbous, 50% of the Moon is Illuminated
Jan 5
Waning Gibbous
Jan 12
New
Jan 19
First Quarter
Jan 27
Full
Feb 3
Last Quarter

Hourly Weather History & Observations

Time (AWST) Temp. Heat Index Dew Point Humidity Pressure Visibility Wind Dir Wind Speed Gust Speed Precip Events Conditions
12:00 AM 84 °F - 77 °F 73% 29.67 in - West 5.8 mph - -  
12:00 AM 84.2 °F 94.1 °F 77.0 °F 79% 29.65 in - WSW 5.8 mph - N/A   Unknown
12:30 AM 82.4 °F 90.9 °F 77.0 °F 84% 29.65 in - West 6.9 mph - N/A   Unknown
1:00 AM 82.4 °F 90.9 °F 77.0 °F 84% 29.65 in - West 5.8 mph - N/A   Unknown
1:30 AM 82.4 °F 90.9 °F 77.0 °F 84% 29.65 in - WSW 4.6 mph - N/A   Unknown
2:00 AM 83 °F - 77 °F 76% 29.66 in - Calm Calm - -  
2:00 AM 82.4 °F 90.9 °F 77.0 °F 84% 29.65 in - Calm Calm - N/A   Unknown
2:30 AM 84.2 °F 94.1 °F 77.0 °F 79% 29.65 in - SW 5.8 mph - N/A   Unknown
3:00 AM 83 °F - 76 °F 75% 29.65 in - SSW 3.5 mph - -  
3:00 AM 82.4 °F 90.9 °F 77.0 °F 84% 29.65 in - SSW 3.5 mph - N/A   Unknown
3:30 AM 82.4 °F 89.5 °F 75.2 °F 79% 29.65 in - Calm Calm - N/A   Scattered Clouds
4:00 AM 82.4 °F 89.5 °F 75.2 °F 79% 29.65 in - South 5.8 mph - N/A   Unknown
4:30 AM 82.4 °F 89.5 °F 75.2 °F 79% 29.65 in - South 3.5 mph - N/A   Unknown
5:00 AM 81 °F - 76 °F 79% 29.66 in - South 3.5 mph - -  
5:00 AM 80.6 °F 86.2 °F 75.2 °F 84% 29.65 in - South 3.5 mph - N/A   Unknown
5:30 AM 80.6 °F 86.2 °F 75.2 °F 84% 29.65 in - South 5.8 mph - N/A   Unknown
6:00 AM 81 °F - 76 °F 80% 29.68 in - SW 6.9 mph - -  
6:00 AM 80.6 °F 86.2 °F 75.2 °F 84% 29.68 in - SW 6.9 mph - N/A   Unknown
6:30 AM 84.2 °F 94.1 °F 77.0 °F 79% 29.68 in - SW 2.3 mph - N/A   Unknown
7:00 AM 86.0 °F 96.9 °F 77.0 °F 74% 29.68 in - NNW 1.2 mph - N/A   Unknown
7:30 AM 86.0 °F 96.9 °F 77.0 °F 74% 29.71 in - Calm Calm - N/A   Unknown
8:00 AM 88 °F - 75 °F 58% 29.73 in - SSW 4.6 mph - -  
8:00 AM 87.8 °F 97.6 °F 75.2 °F 66% 29.71 in - SSW 4.6 mph - N/A   Unknown
8:30 AM 87.8 °F 97.6 °F 75.2 °F 66% 29.74 in - ESE 8.1 mph - N/A   Mostly Cloudy
9:00 AM 90 °F - 76 °F 54% 29.75 in - ENE 11.5 mph - -  
9:00 AM 89.6 °F 99.8 °F 75.2 °F 62% 29.74 in - ENE 11.5 mph - N/A   Unknown
9:30 AM 89.6 °F 99.8 °F 75.2 °F 62% 29.74 in 6.2 mi NE 15.0 mph - N/A   Scattered Clouds
10:00 AM 93.2 °F 100.5 °F 71.6 °F 49% 29.77 in - ENE 20.7 mph - N/A   Scattered Clouds
10:30 AM 93.2 °F 102.4 °F 73.4 °F 52% 29.77 in - NE 17.3 mph - N/A   Unknown
11:00 AM 92 °F - 73 °F 46% 29.75 in - NNE 10.4 mph - -  
11:00 AM 91.4 °F 100.1 °F 73.4 °F 55% 29.74 in 6.2 mi NNE 10.4 mph - N/A   Unknown
11:30 AM 93.2 °F 105.0 °F 75.2 °F 56% 29.74 in 6.2 mi NNE 16.1 mph - N/A   Scattered Clouds
12:00 PM 93 °F - 74 °F 46% 29.75 in - NNE 15.0 mph - -  
12:00 PM 93.2 °F 105.0 °F 75.2 °F 56% 29.74 in - NNE 15.0 mph - N/A   Unknown
12:30 PM 91.4 °F 100.1 °F 73.4 °F 55% 29.74 in 6.2 mi North 12.7 mph - N/A   Unknown
1:00 PM 95.0 °F 104.5 °F 73.4 °F 49% 29.71 in - North 12.7 mph - N/A   Unknown
1:30 PM 91.4 °F 100.1 °F 73.4 °F 55% 29.68 in 6.2 mi NNE 10.4 mph - N/A   Unknown
2:00 PM 94 °F - 73 °F 41% 29.67 in - East 5.8 mph - -  
2:00 PM 93.2 °F 102.4 °F 73.4 °F 52% 29.65 in 6.2 mi East 5.8 mph - N/A   Unknown
2:30 PM 95.0 °F 103.2 °F 71.6 °F 47% 29.65 in 6.2 mi ENE 6.9 mph - N/A   Unknown
3:00 PM 96 °F - 72 °F 37% 29.65 in - East 5.8 mph - -  
3:00 PM 96.8 °F 105.1 °F 71.6 °F 44% 29.65 in 6.2 mi East 5.8 mph - N/A   Unknown
3:30 PM 95.0 °F 104.5 °F 73.4 °F 49% 29.62 in 6.2 mi North 10.4 mph - N/A   Unknown
4:00 PM 98.6 °F 107.7 °F 71.6 °F 42% 29.62 in 6.2 mi NNE 9.2 mph - N/A   Unknown
4:30 PM 96.8 °F 107.3 °F 73.4 °F 47% 29.62 in 6.2 mi North 10.4 mph - N/A   Unknown
5:00 PM 93 °F - 75 °F 47% 29.63 in - North 11.5 mph - -  
5:00 PM 93.2 °F 105.0 °F 75.2 °F 56% 29.62 in 6.2 mi North 11.5 mph - N/A   Unknown
5:30 PM 95.0 °F 104.5 °F 73.4 °F 49% 29.62 in 6.2 mi North 9.2 mph - N/A   Unknown
6:00 PM 93 °F - 74 °F 46% 29.64 in - North 10.4 mph - -  
6:00 PM 93.2 °F 105.0 °F 75.2 °F 56% 29.62 in 6.2 mi North 10.4 mph - N/A   Unknown
6:30 PM 91.4 °F 102.5 °F 75.2 °F 59% 29.65 in 6.2 mi NNW 9.2 mph - N/A   Unknown
7:00 PM 89.6 °F 102.2 °F 77.0 °F 66% 29.65 in - NNW 6.9 mph - N/A   Unknown
7:30 PM 87.8 °F 102.5 °F 78.8 °F 75% 29.65 in - NNW 9.2 mph - N/A   Unknown
8:00 PM 88 °F - 79 °F 68% 29.68 in - NW 10.4 mph - -  
8:00 PM 87.8 °F 102.5 °F 78.8 °F 75% 29.68 in - NW 10.4 mph - N/A   Unknown
8:30 PM 87.8 °F 102.5 °F 78.8 °F 75% 29.68 in - NW 10.4 mph - N/A   Unknown
9:00 PM 87 °F - 80 °F 74% 29.69 in - WNW 8.1 mph - -  
9:00 PM 86.0 °F 101.9 °F 80.6 °F 84% 29.68 in - WNW 8.1 mph - N/A   Unknown
9:30 PM 86.0 °F 99.3 °F 78.8 °F 79% 29.68 in - WNW 8.1 mph - N/A   Unknown
10:00 PM 86.0 °F 99.3 °F 78.8 °F 79% 29.71 in - WNW 8.1 mph - N/A   Unknown
10:30 PM 86.0 °F 99.3 °F 78.8 °F 79% 29.71 in - WNW 9.2 mph - N/A   Unknown
11:00 PM 87 °F - 80 °F 74% 29.71 in - West 10.4 mph - -  
11:00 PM 86.0 °F 101.9 °F 80.6 °F 84% 29.71 in - West 10.4 mph - N/A   Unknown
11:30 PM 86.0 °F 99.3 °F 78.8 °F 79% 29.71 in - West 8.1 mph - N/A   Unknown